Baltica — SNGH — position and weather

sailwx.info

Track history (hours):
 
Tides and Currents Weather Stations Pressure Air Temp Water Temp Dewpoint Dewpoint Depression Visibility Wind Speed Wind Dir Waves Ship Positions

Oceanographic research ship Baltica (Poland)

Detailed information on ship capabilities available from University of Delaware's Ocean Information Center.

Last reported at 2017-Mar-30 00:32 UTC. Time now 2017-Mar-30 00:50 UTC.
Position N 54°31' E 018°33'.

Length 41 m; beam 9 m.

Type: Fishing. MMSI: 261061000.

Date/timePositionNaut miles runAvg speedWind from/ knotsBaromVisibWave heightAir tempDewpointWater temp
2017-Mar-30 00:32N 54°31' E 018°33'0 0.0
2017-Mar-29 23:32N 54°31' E 018°33'0 0.0
2017-Mar-29 22:31N 54°31' E 018°33'0 0.0
2017-Mar-29 21:31N 54°31' E 018°33'0 0.0
2017-Mar-29 20:33N 54°31' E 018°33'0 0.0
2017-Mar-29 19:33N 54°31' E 018°33'0 0.0
2017-Mar-29 18:33N 54°31' E 018°33'0 0.0
2017-Mar-29 17:32N 54°31' E 018°33'0 0.0
2017-Mar-29 16:32N 54°31' E 018°33'0 0.0
2017-Mar-29 15:31N 54°31' E 018°33'0 0.0
2017-Mar-29 14:31N 54°31' E 018°33'0 0.0
2017-Mar-29 13:33N 54°31' E 018°33'0 0.0
2017-Mar-29 12:33N 54°31' E 018°33'0 0.0
2017-Mar-29 11:32N 54°31' E 018°33'0 0.0
2017-Mar-29 10:32N 54°31' E 018°33'0 0.0
2017-Mar-29 09:32N 54°31' E 018°33'0 0.0
2017-Mar-29 08:31N 54°31' E 018°33'0 0.0
2017-Mar-29 07:31N 54°31' E 018°33'0 0.0
2017-Mar-29 06:33N 54°31' E 018°33'0 0.0
2017-Mar-29 05:33N 54°31' E 018°33'0 0.0
2017-Mar-29 04:32N 54°31' E 018°33'0 0.0
2017-Mar-29 03:32N 54°31' E 018°33'0 0.0
2017-Mar-29 02:32N 54°31' E 018°33'0 0.0
2017-Mar-29 01:31N 54°31' E 018°33'0 0.0
2017-Mar-29 00:31N 54°31' E 018°33'0 0.0
2017-Mar-28 23:33N 54°31' E 018°33'0 0.0
2017-Mar-28 22:33N 54°31' E 018°33'0 0.0
2017-Mar-28 21:32N 54°31' E 018°33'0 0.0
2017-Mar-28 20:32N 54°31' E 018°33'0 0.0
2017-Mar-28 19:32N 54°31' E 018°33'0 0.0
2017-Mar-28 18:28N 54°31' E 018°33'0 0.0
2017-Mar-28 17:31N 54°31' E 018°33'0 0.0
2017-Mar-28 16:33N 54°31' E 018°33'0 0.0
2017-Mar-28 15:33N 54°31' E 018°33'0 0.0
2017-Mar-28 14:32N 54°31' E 018°33'0 0.0
2017-Mar-28 13:32N 54°31' E 018°33'0 0.0
2017-Mar-28 12:31N 54°31' E 018°33'0 0.0
2017-Mar-28 11:31N 54°31' E 018°33'0 0.0
2017-Mar-28 10:31N 54°31' E 018°33'0 0.0
2017-Mar-28 09:33N 54°31' E 018°33'0 0.0
2017-Mar-28 08:33N 54°31' E 018°33'0 0.0
2017-Mar-28 07:33N 54°31' E 018°33'0 0.0
2017-Mar-28 06:33N 54°31' E 018°33'0 0.0
2017-Mar-28 05:31N 54°31' E 018°33'0 0.0
2017-Mar-28 04:31N 54°31' E 018°33'0 0.0
2017-Mar-28 03:33N 54°31' E 018°33'0 0.0
2017-Mar-28 02:33N 54°31' E 018°33'0 0.0
2017-Mar-28 01:32N 54°31' E 018°33'0 0.0
2017-Mar-28 00:32N 54°31' E 018°33'0 0.0
2017-Mar-27 23:32N 54°31' E 018°33'0 0.0
2017-Mar-27 22:31N 54°31' E 018°33'0 0.0
2017-Mar-27 21:31N 54°31' E 018°33'0 0.0
2017-Mar-27 20:33N 54°31' E 018°33'0 0.0
2017-Mar-27 19:33N 54°31' E 018°33'0 0.0
2017-Mar-27 18:32N 54°31' E 018°33'0 0.0
2017-Mar-27 17:32N 54°31' E 018°33'0 0.0
2017-Mar-27 16:32N 54°31' E 018°33'0 0.0
2017-Mar-27 15:31N 54°31' E 018°33'0 0.0
2017-Mar-27 14:31N 54°31' E 018°33'0 0.0
2017-Mar-27 13:33N 54°31' E 018°33'0 0.0
2017-Mar-27 12:33N 54°31' E 018°33'0 0.0
2017-Mar-27 11:32N 54°31' E 018°33'0 0.0
2017-Mar-27 10:32N 54°31' E 018°33'0 0.0
2017-Mar-27 09:34N 54°31' E 018°33'5 4.9
2017-Mar-27 08:33N 54°32' E 018°42'8 7.5
2017-Mar-27 07:33N 54°31' E 018°54'8 7.6
2017-Mar-27 06:33N 54°29' E 019°07'0 0.5
2017-Mar-27 05:33N 54°29' E 019°08'4 3.9
2017-Mar-27 04:33N 54°25' E 019°11'4 4.0
2017-Mar-27 03:33N 54°24' E 019°18'1 0.9
2017-Mar-27 02:33N 54°25' E 019°17'1 1.0
2017-Mar-27 01:33N 54°25' E 019°15'2 2.3
2017-Mar-27 00:33N 54°25' E 019°19'2 1.7
2017-Mar-26 23:33N 54°24' E 019°22'1 0.8
2017-Mar-26 22:34N 54°24' E 019°20'1 0.7
2017-Mar-26 21:34N 54°24' E 019°19'1 0.7
2017-Mar-26 20:34N 54°24' E 019°18'0 0.5
2017-Mar-26 19:34N 54°24' E 019°17'0 0.3
2017-Mar-26 18:34N 54°24' E 019°16'0 0.2
2017-Mar-26 17:34N 54°24' E 019°16'0 0.2
2017-Mar-26 16:33N 54°24' E 019°16'0 0.2
2017-Mar-26 15:33N 54°24' E 019°16'0 0.1
2017-Mar-26 14:33N 54°24' E 019°16'2 2.0
2017-Mar-26 13:34N 54°26' E 019°18'3 3.4
2017-Mar-26 12:34N 54°28' E 019°21'0 0.2
2017-Mar-26 11:33N 54°28' E 019°21'0 0.5
2017-Mar-26 10:34N 54°28' E 019°20'1 1.2
2017-Mar-26 09:24N 54°29' E 019°22'0 0.3
2017-Mar-26 08:33N 54°29' E 019°22'1 0.6
2017-Mar-26 07:33N 54°28' E 019°21'0 0.3
2017-Mar-26 06:33N 54°29' E 019°21'2 2.0
2017-Mar-26 05:33N 54°27' E 019°20'2 1.5
2017-Mar-26 04:34N 54°25' E 019°21'0 0.3
2017-Mar-26 03:33N 54°25' E 019°21'0 0.4
2017-Mar-26 02:34N 54°26' E 019°21'1 0.5
2017-Mar-26 01:34N 54°26' E 019°20'0 0.5
2017-Mar-26 00:33N 54°27' E 019°20'1 0.5
2017-Mar-25 23:33N 54°27' E 019°19'3 3.5
2017-Mar-25 22:33N 54°25' E 019°24'0 0.1
2017-Mar-25 21:34N 54°25' E 019°24'0 0.5
2017-Mar-25 20:33N 54°26' E 019°23'0 0.4
2017-Mar-25 19:34N 54°26' E 019°23'1 0.5
2017-Mar-25 18:34N 54°26' E 019°23'1 0.8
2017-Mar-25 17:34N 54°27' E 019°22'1 0.8
2017-Mar-25 16:34N 54°28' E 019°21'1 1.3
2017-Mar-25 15:34N 54°28' E 019°19'2 2.0
2017-Mar-25 14:34N 54°28' E 019°23'1 1.3
2017-Mar-25 13:33N 54°28' E 019°20'1 1.1
2017-Mar-25 12:33N 54°28' E 019°22'1 1.1
2017-Mar-25 11:34N 54°28' E 019°20'1 1.0
2017-Mar-25 10:33N 54°27' E 019°21'0 0.3
2017-Mar-25 09:34N 54°27' E 019°21'2 1.9
2017-Mar-25 08:34N 54°26' E 019°18'1 1.3
2017-Mar-25 07:33N 54°25' E 019°17'2 1.6
2017-Mar-25 06:34N 54°25' E 019°14'6 6.2
2017-Mar-25 05:33N 54°27' E 019°25'1 0.8
2017-Mar-25 04:34N 54°27' E 019°24'3 3.0
2017-Mar-25 03:34N 54°26' E 019°29'1 0.7
2017-Mar-25 02:33N 54°26' E 019°30'1 0.8
2017-Mar-25 01:33N 54°26' E 019°28'1 0.7
2017-Mar-25 00:34N 54°26' E 019°27'1 0.8
2017-Mar-24 23:33N 54°26' E 019°26'2 1.6
2017-Mar-24 22:34N 54°26' E 019°24'2 2.1
2017-Mar-24 21:33N 54°28' E 019°22'8 8.0
2017-Mar-24 20:34N 54°35' E 019°15'8 8.0
2017-Mar-24 19:33N 54°41' E 019°07'8 8.3
2017-Mar-24 18:33N 54°44' E 018°53'6 5.7
2017-Mar-24 17:33N 54°45' E 018°44'1 1.3
2017-Mar-24 16:33N 54°47' E 018°43'3 3.4
2017-Mar-24 15:33N 54°49' E 018°39'4 4.4
2017-Mar-24 14:33N 54°54' E 018°37'2 2.0
2017-Mar-24 13:33N 54°55' E 018°35'4 4.5
2017-Mar-24 12:33N 54°59' E 018°30'7 3.5
2017-Mar-24 10:31N 55°03' E 018°20'2 1.4
2017-Mar-24 09:11N 55°03' E 018°17'4 5.6
2017-Mar-24 08:33N 55°02' E 018°22'5 5.0
2017-Mar-24 07:34N 54°59' E 018°30'5 4.6
2017-Mar-24 06:33N 54°54' E 018°29'2 1.8
2017-Mar-24 05:33N 54°55' E 018°27'4 4.3
2017-Mar-24 04:33N 54°52' E 018°23'0 0.3
2017-Mar-24 03:33N 54°52' E 018°23'1 1.3
2017-Mar-24 02:33N 54°51' E 018°21'0 0.1
2017-Mar-24 01:33N 54°52' E 018°21'0 0.2
2017-Mar-24 00:34N 54°52' E 018°21'0 0.1
2017-Mar-23 23:33N 54°52' E 018°21'0 0.2
2017-Mar-23 22:33N 54°52' E 018°22'0 0.2
2017-Mar-23 21:33N 54°52' E 018°22'0 0.3
2017-Mar-23 20:33N 54°52' E 018°22'0 0.3
2017-Mar-23 19:33N 54°52' E 018°23'0 0.5
2017-Mar-23 18:34N 54°52' E 018°23'6 6.4
2017-Mar-23 17:33N 54°57' E 018°30'2 1.6
2017-Mar-23 16:33N 54°59' E 018°30'2 1.6
2017-Mar-23 15:34N 54°60' E 018°28'1 0.7
2017-Mar-23 14:33N 54°59' E 018°29'4 4.0
2017-Mar-23 13:33N 54°56' E 018°34'2 2.2
2017-Mar-23 12:33N 54°55' E 018°36'4 3.6
2017-Mar-23 11:33N 54°51' E 018°35'3 3.2
2017-Mar-23 10:33N 54°49' E 018°40'8 8.2
2017-Mar-23 09:33N 54°44' E 018°51'7 6.7
2017-Mar-23 08:33N 54°38' E 018°56'8 7.9
2017-Mar-23 07:33N 54°32' E 018°48'8 7.7
2017-Mar-23 06:33N 54°31' E 018°35'1 0.9
2017-Mar-23 05:33N 54°31' E 018°33'0 0.0
2017-Mar-23 04:33N 54°31' E 018°33'0 0.0
2017-Mar-23 03:33N 54°31' E 018°33'0 0.0
2017-Mar-23 02:34N 54°31' E 018°33'0 0.0
2017-Mar-23 01:33N 54°31' E 018°33'0 0.0
2017-Mar-23 00:33N 54°31' E 018°33'0 0.0
2017-Mar-22 23:33N 54°31' E 018°33'0 0.0
2017-Mar-22 22:33N 54°31' E 018°33'0 0.0
2017-Mar-22 21:33N 54°31' E 018°33'0 0.0
2017-Mar-22 20:33N 54°31' E 018°33'0 0.0
2017-Mar-22 19:33N 54°31' E 018°33'0 0.0
2017-Mar-22 18:33N 54°31' E 018°33'0 0.0
2017-Mar-22 17:33N 54°31' E 018°33'0 0.0
2017-Mar-22 16:33N 54°31' E 018°33'0 0.0
2017-Mar-22 15:33N 54°31' E 018°33'0 0.0
2017-Mar-22 14:33N 54°31' E 018°33'0 0.0
2017-Mar-22 13:33N 54°31' E 018°33'0 0.0
2017-Mar-22 12:33N 54°31' E 018°33'0 0.0
2017-Mar-22 11:33N 54°31' E 018°33'0 0.0
2017-Mar-22 10:33N 54°31' E 018°33'0 0.0
2017-Mar-22 09:33N 54°31' E 018°33'0 0.0
2017-Mar-22 08:33N 54°31' E 018°33'0 0.0
2017-Mar-22 07:33N 54°31' E 018°33'0 0.0
2017-Mar-22 06:33N 54°31' E 018°33'0 0.0
2017-Mar-22 05:33N 54°31' E 018°33'0 0.0
2017-Mar-22 04:33N 54°31' E 018°33'0 0.0
2017-Mar-22 03:33N 54°31' E 018°33'0 0.0
2017-Mar-22 02:33N 54°31' E 018°33'0 0.0
2017-Mar-22 01:33N 54°31' E 018°33'0 0.0
2017-Mar-22 00:33N 54°31' E 018°33'0 0.0
2017-Mar-21 23:33N 54°31' E 018°33'0 0.0
2017-Mar-21 22:33N 54°31' E 018°33'0 0.0
2017-Mar-21 21:33N 54°31' E 018°33'0 0.0
2017-Mar-21 20:33N 54°31' E 018°33'0 0.0
2017-Mar-21 19:33N 54°31' E 018°33'0 0.0
2017-Mar-21 18:33N 54°31' E 018°33'0 0.0
2017-Mar-21 17:33N 54°31' E 018°33'0 0.0
2017-Mar-21 16:33N 54°31' E 018°33'0 0.0
2017-Mar-21 15:33N 54°31' E 018°33'0 0.0
2017-Mar-21 14:33N 54°31' E 018°33'0 0.0
2017-Mar-21 13:33N 54°31' E 018°33'0 0.0
2017-Mar-21 12:33N 54°31' E 018°33'0 0.0
2017-Mar-21 11:33N 54°31' E 018°33'0 0.0
2017-Mar-21 10:33N 54°31' E 018°33'0 0.0
2017-Mar-21 09:33N 54°31' E 018°33'0 0.0
2017-Mar-21 08:33N 54°31' E 018°33'0 0.0
2017-Mar-21 07:33N 54°31' E 018°33'0 0.0
2017-Mar-21 06:33N 54°31' E 018°33'0 0.0
2017-Mar-21 05:33N 54°31' E 018°33'0 0.0
2017-Mar-21 04:33N 54°31' E 018°33'0 0.0
2017-Mar-21 03:33N 54°31' E 018°33'0 0.0
2017-Mar-21 02:33N 54°31' E 018°33'0 0.0
2017-Mar-21 01:33N 54°31' E 018°33'0 0.0
2017-Mar-21 00:33N 54°31' E 018°33'0 0.0
2017-Mar-20 23:33N 54°31' E 018°33'0 0.0
2017-Mar-20 22:33N 54°31' E 018°33'0 0.0
2017-Mar-20 21:33N 54°31' E 018°33'0 0.0
2017-Mar-20 20:33N 54°31' E 018°33'0 0.0
2017-Mar-20 19:33N 54°31' E 018°33'0 0.0
2017-Mar-20 18:33N 54°31' E 018°33'0 0.0
2017-Mar-20 17:33N 54°31' E 018°33'0 0.0
2017-Mar-20 16:33N 54°31' E 018°33'0 0.0
2017-Mar-20 15:33N 54°31' E 018°33'0 0.0
2017-Mar-20 14:33N 54°31' E 018°33'0 0.0
2017-Mar-20 13:33N 54°31' E 018°33'0 0.0
2017-Mar-20 12:33N 54°31' E 018°33'0 0.0
2017-Mar-20 11:33N 54°31' E 018°33'0 0.0
2017-Mar-20 10:33N 54°31' E 018°33'0 0.0
2017-Mar-20 09:33N 54°31' E 018°33'0 0.0
2017-Mar-20 08:33N 54°31' E 018°33'0 0.0
2017-Mar-20 07:33N 54°31' E 018°33'0 0.0
2017-Mar-20 06:33N 54°31' E 018°33'0 0.0
2017-Mar-20 05:33N 54°31' E 018°33'0 0.0
2017-Mar-20 04:33N 54°31' E 018°33'0 0.0
2017-Mar-20 03:33N 54°31' E 018°33'0 0.0
2017-Mar-20 02:33N 54°31' E 018°33'0 0.0
2017-Mar-20 01:33N 54°31' E 018°33'0 0.0
2017-Mar-20 00:33N 54°31' E 018°33'  
Track history (hours):
 
Tides and Currents Weather Stations Pressure Air Temp Water Temp Dewpoint Dewpoint Depression Visibility Wind Speed Wind Dir Waves Ship Positions

Oceanographic research ship Baltica (Poland)

Detailed information on ship capabilities available from University of Delaware's Ocean Information Center.

Last reported at 2017-Mar-30 00:32 UTC. Time now 2017-Mar-30 00:50 UTC.
Position N 54°31' E 018°33'.

Length 41 m; beam 9 m.

Type: Fishing. MMSI: 261061000.

Date/timePositionNaut miles runAvg speedWind from/ knotsBaromVisibWave heightAir tempDewpointWater temp
2017-Mar-30 00:32N 54°31' E 018°33'0 0.0
2017-Mar-29 23:32N 54°31' E 018°33'0 0.0
2017-Mar-29 22:31N 54°31' E 018°33'0 0.0
2017-Mar-29 21:31N 54°31' E 018°33'0 0.0
2017-Mar-29 20:33N 54°31' E 018°33'0 0.0
2017-Mar-29 19:33N 54°31' E 018°33'0 0.0
2017-Mar-29 18:33N 54°31' E 018°33'0 0.0
2017-Mar-29 17:32N 54°31' E 018°33'0 0.0
2017-Mar-29 16:32N 54°31' E 018°33'0 0.0
2017-Mar-29 15:31N 54°31' E 018°33'0 0.0
2017-Mar-29 14:31N 54°31' E 018°33'0 0.0
2017-Mar-29 13:33N 54°31' E 018°33'0 0.0
2017-Mar-29 12:33N 54°31' E 018°33'0 0.0
2017-Mar-29 11:32N 54°31' E 018°33'0 0.0
2017-Mar-29 10:32N 54°31' E 018°33'0 0.0
2017-Mar-29 09:32N 54°31' E 018°33'0 0.0
2017-Mar-29 08:31N 54°31' E 018°33'0 0.0
2017-Mar-29 07:31N 54°31' E 018°33'0 0.0
2017-Mar-29 06:33N 54°31' E 018°33'0 0.0
2017-Mar-29 05:33N 54°31' E 018°33'0 0.0
2017-Mar-29 04:32N 54°31' E 018°33'0 0.0
2017-Mar-29 03:32N 54°31' E 018°33'0 0.0
2017-Mar-29 02:32N 54°31' E 018°33'0 0.0
2017-Mar-29 01:31N 54°31' E 018°33'0 0.0
2017-Mar-29 00:31N 54°31' E 018°33'0 0.0
2017-Mar-28 23:33N 54°31' E 018°33'0 0.0
2017-Mar-28 22:33N 54°31' E 018°33'0 0.0
2017-Mar-28 21:32N 54°31' E 018°33'0 0.0
2017-Mar-28 20:32N 54°31' E 018°33'0 0.0
2017-Mar-28 19:32N 54°31' E 018°33'0 0.0
2017-Mar-28 18:28N 54°31' E 018°33'0 0.0
2017-Mar-28 17:31N 54°31' E 018°33'0 0.0
2017-Mar-28 16:33N 54°31' E 018°33'0 0.0
2017-Mar-28 15:33N 54°31' E 018°33'0 0.0
2017-Mar-28 14:32N 54°31' E 018°33'0 0.0
2017-Mar-28 13:32N 54°31' E 018°33'0 0.0
2017-Mar-28 12:31N 54°31' E 018°33'0 0.0
2017-Mar-28 11:31N 54°31' E 018°33'0 0.0
2017-Mar-28 10:31N 54°31' E 018°33'0 0.0
2017-Mar-28 09:33N 54°31' E 018°33'0 0.0
2017-Mar-28 08:33N 54°31' E 018°33'0 0.0
2017-Mar-28 07:33N 54°31' E 018°33'0 0.0
2017-Mar-28 06:33N 54°31' E 018°33'0 0.0
2017-Mar-28 05:31N 54°31' E 018°33'0 0.0
2017-Mar-28 04:31N 54°31' E 018°33'0 0.0
2017-Mar-28 03:33N 54°31' E 018°33'0 0.0
2017-Mar-28 02:33N 54°31' E 018°33'0 0.0
2017-Mar-28 01:32N 54°31' E 018°33'0 0.0
2017-Mar-28 00:32N 54°31' E 018°33'0 0.0
2017-Mar-27 23:32N 54°31' E 018°33'0 0.0
2017-Mar-27 22:31N 54°31' E 018°33'0 0.0
2017-Mar-27 21:31N 54°31' E 018°33'0 0.0
2017-Mar-27 20:33N 54°31' E 018°33'0 0.0
2017-Mar-27 19:33N 54°31' E 018°33'0 0.0
2017-Mar-27 18:32N 54°31' E 018°33'0 0.0
2017-Mar-27 17:32N 54°31' E 018°33'0 0.0
2017-Mar-27 16:32N 54°31' E 018°33'0 0.0
2017-Mar-27 15:31N 54°31' E 018°33'0 0.0
2017-Mar-27 14:31N 54°31' E 018°33'0 0.0
2017-Mar-27 13:33N 54°31' E 018°33'0 0.0
2017-Mar-27 12:33N 54°31' E 018°33'0 0.0
2017-Mar-27 11:32N 54°31' E 018°33'0 0.0
2017-Mar-27 10:32N 54°31' E 018°33'0 0.0
2017-Mar-27 09:34N 54°31' E 018°33'5 4.9
2017-Mar-27 08:33N 54°32' E 018°42'8 7.5
2017-Mar-27 07:33N 54°31' E 018°54'8 7.6
2017-Mar-27 06:33N 54°29' E 019°07'0 0.5
2017-Mar-27 05:33N 54°29' E 019°08'4 3.9
2017-Mar-27 04:33N 54°25' E 019°11'4 4.0
2017-Mar-27 03:33N 54°24' E 019°18'1 0.9
2017-Mar-27 02:33N 54°25' E 019°17'1 1.0
2017-Mar-27 01:33N 54°25' E 019°15'2 2.3
2017-Mar-27 00:33N 54°25' E 019°19'2 1.7
2017-Mar-26 23:33N 54°24' E 019°22'1 0.8
2017-Mar-26 22:34N 54°24' E 019°20'1 0.7
2017-Mar-26 21:34N 54°24' E 019°19'1 0.7
2017-Mar-26 20:34N 54°24' E 019°18'0 0.5
2017-Mar-26 19:34N 54°24' E 019°17'0 0.3
2017-Mar-26 18:34N 54°24' E 019°16'0 0.2
2017-Mar-26 17:34N 54°24' E 019°16'0 0.2
2017-Mar-26 16:33N 54°24' E 019°16'0 0.2
2017-Mar-26 15:33N 54°24' E 019°16'0 0.1
2017-Mar-26 14:33N 54°24' E 019°16'2 2.0
2017-Mar-26 13:34N 54°26' E 019°18'3 3.4
2017-Mar-26 12:34N 54°28' E 019°21'0 0.2
2017-Mar-26 11:33N 54°28' E 019°21'0 0.5
2017-Mar-26 10:34N 54°28' E 019°20'1 1.2
2017-Mar-26 09:24N 54°29' E 019°22'0 0.3
2017-Mar-26 08:33N 54°29' E 019°22'1 0.6
2017-Mar-26 07:33N 54°28' E 019°21'0 0.3
2017-Mar-26 06:33N 54°29' E 019°21'2 2.0
2017-Mar-26 05:33N 54°27' E 019°20'2 1.5
2017-Mar-26 04:34N 54°25' E 019°21'0 0.3
2017-Mar-26 03:33N 54°25' E 019°21'0 0.4
2017-Mar-26 02:34N 54°26' E 019°21'1 0.5
2017-Mar-26 01:34N 54°26' E 019°20'0 0.5
2017-Mar-26 00:33N 54°27' E 019°20'1 0.5
2017-Mar-25 23:33N 54°27' E 019°19'3 3.5
2017-Mar-25 22:33N 54°25' E 019°24'0 0.1
2017-Mar-25 21:34N 54°25' E 019°24'0 0.5
2017-Mar-25 20:33N 54°26' E 019°23'0 0.4
2017-Mar-25 19:34N 54°26' E 019°23'1 0.5
2017-Mar-25 18:34N 54°26' E 019°23'1 0.8
2017-Mar-25 17:34N 54°27' E 019°22'1 0.8
2017-Mar-25 16:34N 54°28' E 019°21'1 1.3
2017-Mar-25 15:34N 54°28' E 019°19'2 2.0
2017-Mar-25 14:34N 54°28' E 019°23'1 1.3
2017-Mar-25 13:33N 54°28' E 019°20'1 1.1
2017-Mar-25 12:33N 54°28' E 019°22'1 1.1
2017-Mar-25 11:34N 54°28' E 019°20'1 1.0
2017-Mar-25 10:33N 54°27' E 019°21'0 0.3
2017-Mar-25 09:34N 54°27' E 019°21'2 1.9
2017-Mar-25 08:34N 54°26' E 019°18'1 1.3
2017-Mar-25 07:33N 54°25' E 019°17'2 1.6
2017-Mar-25 06:34N 54°25' E 019°14'6 6.2
2017-Mar-25 05:33N 54°27' E 019°25'1 0.8
2017-Mar-25 04:34N 54°27' E 019°24'3 3.0
2017-Mar-25 03:34N 54°26' E 019°29'1 0.7
2017-Mar-25 02:33N 54°26' E 019°30'1 0.8
2017-Mar-25 01:33N 54°26' E 019°28'1 0.7
2017-Mar-25 00:34N 54°26' E 019°27'1 0.8
2017-Mar-24 23:33N 54°26' E 019°26'2 1.6
2017-Mar-24 22:34N 54°26' E 019°24'2 2.1
2017-Mar-24 21:33N 54°28' E 019°22'8 8.0
2017-Mar-24 20:34N 54°35' E 019°15'8 8.0
2017-Mar-24 19:33N 54°41' E 019°07'8 8.3
2017-Mar-24 18:33N 54°44' E 018°53'6 5.7
2017-Mar-24 17:33N 54°45' E 018°44'1 1.3
2017-Mar-24 16:33N 54°47' E 018°43'3 3.4
2017-Mar-24 15:33N 54°49' E 018°39'4 4.4
2017-Mar-24 14:33N 54°54' E 018°37'2 2.0
2017-Mar-24 13:33N 54°55' E 018°35'4 4.5
2017-Mar-24 12:33N 54°59' E 018°30'7 3.5
2017-Mar-24 10:31N 55°03' E 018°20'2 1.4
2017-Mar-24 09:11N 55°03' E 018°17'4 5.6
2017-Mar-24 08:33N 55°02' E 018°22'5 5.0
2017-Mar-24 07:34N 54°59' E 018°30'5 4.6
2017-Mar-24 06:33N 54°54' E 018°29'2 1.8
2017-Mar-24 05:33N 54°55' E 018°27'4 4.3
2017-Mar-24 04:33N 54°52' E 018°23'0 0.3
2017-Mar-24 03:33N 54°52' E 018°23'1 1.3
2017-Mar-24 02:33N 54°51' E 018°21'0 0.1
2017-Mar-24 01:33N 54°52' E 018°21'0 0.2
2017-Mar-24 00:34N 54°52' E 018°21'0 0.1
2017-Mar-23 23:33N 54°52' E 018°21'0 0.2
2017-Mar-23 22:33N 54°52' E 018°22'0 0.2
2017-Mar-23 21:33N 54°52' E 018°22'0 0.3
2017-Mar-23 20:33N 54°52' E 018°22'0 0.3
2017-Mar-23 19:33N 54°52' E 018°23'0 0.5
2017-Mar-23 18:34N 54°52' E 018°23'6 6.4
2017-Mar-23 17:33N 54°57' E 018°30'2 1.6
2017-Mar-23 16:33N 54°59' E 018°30'2 1.6
2017-Mar-23 15:34N 54°60' E 018°28'1 0.7
2017-Mar-23 14:33N 54°59' E 018°29'4 4.0
2017-Mar-23 13:33N 54°56' E 018°34'2 2.2
2017-Mar-23 12:33N 54°55' E 018°36'4 3.6
2017-Mar-23 11:33N 54°51' E 018°35'3 3.2
2017-Mar-23 10:33N 54°49' E 018°40'8 8.2
2017-Mar-23 09:33N 54°44' E 018°51'7 6.7
2017-Mar-23 08:33N 54°38' E 018°56'8 7.9
2017-Mar-23 07:33N 54°32' E 018°48'8 7.7
2017-Mar-23 06:33N 54°31' E 018°35'1 0.9
2017-Mar-23 05:33N 54°31' E 018°33'0 0.0
2017-Mar-23 04:33N 54°31' E 018°33'0 0.0
2017-Mar-23 03:33N 54°31' E 018°33'0 0.0
2017-Mar-23 02:34N 54°31' E 018°33'0 0.0
2017-Mar-23 01:33N 54°31' E 018°33'0 0.0
2017-Mar-23 00:33N 54°31' E 018°33'0 0.0
2017-Mar-22 23:33N 54°31' E 018°33'0 0.0
2017-Mar-22 22:33N 54°31' E 018°33'0 0.0
2017-Mar-22 21:33N 54°31' E 018°33'0 0.0
2017-Mar-22 20:33N 54°31' E 018°33'0 0.0
2017-Mar-22 19:33N 54°31' E 018°33'0 0.0
2017-Mar-22 18:33N 54°31' E 018°33'0 0.0
2017-Mar-22 17:33N 54°31' E 018°33'0 0.0
2017-Mar-22 16:33N 54°31' E 018°33'0 0.0
2017-Mar-22 15:33N 54°31' E 018°33'0 0.0
2017-Mar-22 14:33N 54°31' E 018°33'0 0.0
2017-Mar-22 13:33N 54°31' E 018°33'0 0.0
2017-Mar-22 12:33N 54°31' E 018°33'0 0.0
2017-Mar-22 11:33N 54°31' E 018°33'0 0.0
2017-Mar-22 10:33N 54°31' E 018°33'0 0.0
2017-Mar-22 09:33N 54°31' E 018°33'0 0.0
2017-Mar-22 08:33N 54°31' E 018°33'0 0.0
2017-Mar-22 07:33N 54°31' E 018°33'0 0.0
2017-Mar-22 06:33N 54°31' E 018°33'0 0.0
2017-Mar-22 05:33N 54°31' E 018°33'0 0.0
2017-Mar-22 04:33N 54°31' E 018°33'0 0.0
2017-Mar-22 03:33N 54°31' E 018°33'0 0.0
2017-Mar-22 02:33N 54°31' E 018°33'0 0.0
2017-Mar-22 01:33N 54°31' E 018°33'0 0.0
2017-Mar-22 00:33N 54°31' E 018°33'0 0.0
2017-Mar-21 23:33N 54°31' E 018°33'0 0.0
2017-Mar-21 22:33N 54°31' E 018°33'0 0.0
2017-Mar-21 21:33N 54°31' E 018°33'0 0.0
2017-Mar-21 20:33N 54°31' E 018°33'0 0.0
2017-Mar-21 19:33N 54°31' E 018°33'0 0.0
2017-Mar-21 18:33N 54°31' E 018°33'0 0.0
2017-Mar-21 17:33N 54°31' E 018°33'0 0.0
2017-Mar-21 16:33N 54°31' E 018°33'0 0.0
2017-Mar-21 15:33N 54°31' E 018°33'0 0.0
2017-Mar-21 14:33N 54°31' E 018°33'0 0.0
2017-Mar-21 13:33N 54°31' E 018°33'0 0.0
2017-Mar-21 12:33N 54°31' E 018°33'0 0.0
2017-Mar-21 11:33N 54°31' E 018°33'0 0.0
2017-Mar-21 10:33N 54°31' E 018°33'0 0.0
2017-Mar-21 09:33N 54°31' E 018°33'0 0.0
2017-Mar-21 08:33N 54°31' E 018°33'0 0.0
2017-Mar-21 07:33N 54°31' E 018°33'0 0.0
2017-Mar-21 06:33N 54°31' E 018°33'0 0.0
2017-Mar-21 05:33N 54°31' E 018°33'0 0.0
2017-Mar-21 04:33N 54°31' E 018°33'0 0.0
2017-Mar-21 03:33N 54°31' E 018°33'0 0.0
2017-Mar-21 02:33N 54°31' E 018°33'0 0.0
2017-Mar-21 01:33N 54°31' E 018°33'0 0.0
2017-Mar-21 00:33N 54°31' E 018°33'0 0.0
2017-Mar-20 23:33N 54°31' E 018°33'0 0.0
2017-Mar-20 22:33N 54°31' E 018°33'0 0.0
2017-Mar-20 21:33N 54°31' E 018°33'0 0.0
2017-Mar-20 20:33N 54°31' E 018°33'0 0.0
2017-Mar-20 19:33N 54°31' E 018°33'0 0.0
2017-Mar-20 18:33N 54°31' E 018°33'0 0.0
2017-Mar-20 17:33N 54°31' E 018°33'0 0.0
2017-Mar-20 16:33N 54°31' E 018°33'0 0.0
2017-Mar-20 15:33N 54°31' E 018°33'0 0.0
2017-Mar-20 14:33N 54°31' E 018°33'0 0.0
2017-Mar-20 13:33N 54°31' E 018°33'0 0.0
2017-Mar-20 12:33N 54°31' E 018°33'0 0.0
2017-Mar-20 11:33N 54°31' E 018°33'0 0.0
2017-Mar-20 10:33N 54°31' E 018°33'0 0.0
2017-Mar-20 09:33N 54°31' E 018°33'0 0.0
2017-Mar-20 08:33N 54°31' E 018°33'0 0.0
2017-Mar-20 07:33N 54°31' E 018°33'0 0.0
2017-Mar-20 06:33N 54°31' E 018°33'0 0.0
2017-Mar-20 05:33N 54°31' E 018°33'0 0.0
2017-Mar-20 04:33N 54°31' E 018°33'0 0.0
2017-Mar-20 03:33N 54°31' E 018°33'0 0.0
2017-Mar-20 02:33N 54°31' E 018°33'0 0.0
2017-Mar-20 01:33N 54°31' E 018°33'0 0.0
2017-Mar-20 00:33N 54°31' E 018°33'  

Dump ship's entire track history